sensor_id;sensor_type;location;lat;lon;timestamp;pressure;altitude;pressure_sealevel;temperature;humidity
60817;BME280;51921;51.518;-3.188;2023-05-23T00:00:19;102284.90;;;13.02;62.81
60817;BME280;51921;51.518;-3.188;2023-05-23T00:02:44;102284.47;;;12.26;62.46
60817;BME280;51921;51.518;-3.188;2023-05-23T00:05:10;102286.84;;;13.87;58.05
60817;BME280;51921;51.518;-3.188;2023-05-23T00:07:35;102287.98;;;14.58;54.04
60817;BME280;51921;51.518;-3.188;2023-05-23T00:10:01;102290.78;;;14.49;53.73
60817;BME280;51921;51.518;-3.188;2023-05-23T00:12:26;102289.04;;;15.17;51.39
60817;BME280;51921;51.518;-3.188;2023-05-23T00:14:52;102286.71;;;14.27;53.48
60817;BME280;51921;51.518;-3.188;2023-05-23T00:17:17;102283.72;;;15.33;50.79
60817;BME280;51921;51.518;-3.188;2023-05-23T00:19:43;102291.27;;;13.02;55.67
60817;BME280;51921;51.518;-3.188;2023-05-23T00:22:08;102298.90;;;13.84;54.16
60817;BME280;51921;51.518;-3.188;2023-05-23T00:24:34;102302.19;;;13.85;54.91
60817;BME280;51921;51.518;-3.188;2023-05-23T00:26:59;102306.40;;;11.03;60.76
60817;BME280;51921;51.518;-3.188;2023-05-23T00:29:24;102308.31;;;9.71;70.93
60817;BME280;51921;51.518;-3.188;2023-05-23T00:31:50;102308.87;;;9.49;73.43
60817;BME280;51921;51.518;-3.188;2023-05-23T00:34:15;102308.96;;;9.23;76.34
60817;BME280;51921;51.518;-3.188;2023-05-23T00:36:41;102312.03;;;8.61;82.50
60817;BME280;51921;51.518;-3.188;2023-05-23T00:39:07;102310.71;;;8.71;78.54
60817;BME280;51921;51.518;-3.188;2023-05-23T00:41:32;102312.87;;;10.67;71.37
60817;BME280;51921;51.518;-3.188;2023-05-23T00:43:57;102309.74;;;11.88;65.21
60817;BME280;51921;51.518;-3.188;2023-05-23T00:46:23;102310.47;;;11.46;62.92
60817;BME280;51921;51.518;-3.188;2023-05-23T00:48:48;102312.48;;;10.74;65.27
60817;BME280;51921;51.518;-3.188;2023-05-23T00:51:14;102312.72;;;12.01;61.83
60817;BME280;51921;51.518;-3.188;2023-05-23T00:53:40;102315.93;;;9.78;67.43
60817;BME280;51921;51.518;-3.188;2023-05-23T00:56:05;102310.43;;;10.12;69.90
60817;BME280;51921;51.518;-3.188;2023-05-23T00:58:30;102310.85;;;8.54;79.65
60817;BME280;51921;51.518;-3.188;2023-05-23T01:00:56;102306.07;;;8.68;82.60
60817;BME280;51921;51.518;-3.188;2023-05-23T01:03:21;102300.60;;;9.30;80.79
60817;BME280;51921;51.518;-3.188;2023-05-23T01:05:47;102307.29;;;8.18;85.67
60817;BME280;51921;51.518;-3.188;2023-05-23T01:08:12;102305.69;;;7.66;91.16
60817;BME280;51921;51.518;-3.188;2023-05-23T01:10:38;102304.55;;;8.08;89.43
60817;BME280;51921;51.518;-3.188;2023-05-23T01:13:12;102306.46;;;7.95;88.43
60817;BME280;51921;51.518;-3.188;2023-05-23T01:15:34;102304.39;;;8.74;84.47
60817;BME280;51921;51.518;-3.188;2023-05-23T01:18:00;102307.81;;;9.80;78.39
60817;BME280;51921;51.518;-3.188;2023-05-23T01:20:21;102316.06;;;8.43;82.65
60817;BME280;51921;51.518;-3.188;2023-05-23T01:22:58;102317.92;;;9.23;78.61
60817;BME280;51921;51.518;-3.188;2023-05-23T01:25:22;102317.49;;;9.59;76.60
60817;BME280;51921;51.518;-3.188;2023-05-23T01:27:46;102314.00;;;9.20;77.54
60817;BME280;51921;51.518;-3.188;2023-05-23T01:30:04;102310.08;;;8.65;79.27
60817;BME280;51921;51.518;-3.188;2023-05-23T01:32:28;102310.91;;;9.04;80.66
60817;BME280;51921;51.518;-3.188;2023-05-23T01:34:53;102312.42;;;8.50;82.85
60817;BME280;51921;51.518;-3.188;2023-05-23T01:37:18;102313.71;;;9.10;79.18
60817;BME280;51921;51.518;-3.188;2023-05-23T01:39:43;102310.71;;;11.62;66.61
60817;BME280;51921;51.518;-3.188;2023-05-23T01:42:09;102317.15;;;10.72;65.36
60817;BME280;51921;51.518;-3.188;2023-05-23T01:44:35;102320.03;;;9.28;75.09
60817;BME280;51921;51.518;-3.188;2023-05-23T01:47:02;102320.96;;;8.23;86.44
60817;BME280;51921;51.518;-3.188;2023-05-23T01:49:25;102316.61;;;9.07;81.58
60817;BME280;51921;51.518;-3.188;2023-05-23T01:51:51;102318.14;;;9.70;77.15
60817;BME280;51921;51.518;-3.188;2023-05-23T01:54:17;102319.91;;;9.81;74.69
60817;BME280;51921;51.518;-3.188;2023-05-23T01:56:42;102322.91;;;9.75;77.11
60817;BME280;51921;51.518;-3.188;2023-05-23T01:59:08;102326.64;;;9.15;78.45
60817;BME280;51921;51.518;-3.188;2023-05-23T02:01:33;102323.32;;;11.29;70.46
60817;BME280;51921;51.518;-3.188;2023-05-23T02:03:58;102326.69;;;12.26;65.37
60817;BME280;51921;51.518;-3.188;2023-05-23T02:06:24;102330.71;;;12.65;61.82
60817;BME280;51921;51.518;-3.188;2023-05-23T02:08:49;102332.62;;;13.25;59.23
60817;BME280;51921;51.518;-3.188;2023-05-23T02:11:15;102335.26;;;13.99;56.93
60817;BME280;51921;51.518;-3.188;2023-05-23T02:13:40;102338.00;;;13.61;56.54
60817;BME280;51921;51.518;-3.188;2023-05-23T02:16:06;102343.45;;;14.30;53.29
60817;BME280;51921;51.518;-3.188;2023-05-23T02:18:31;102346.89;;;12.37;57.54
60817;BME280;51921;51.518;-3.188;2023-05-23T02:20:57;102346.45;;;12.04;59.80
60817;BME280;51921;51.518;-3.188;2023-05-23T02:23:22;102346.35;;;12.98;58.71
60817;BME280;51921;51.518;-3.188;2023-05-23T02:25:48;102349.00;;;12.94;57.61
60817;BME280;51921;51.518;-3.188;2023-05-23T02:28:13;102351.64;;;14.18;54.80
60817;BME280;51921;51.518;-3.188;2023-05-23T02:30:39;102352.85;;;13.99;54.78
60817;BME280;51921;51.518;-3.188;2023-05-23T02:33:04;102351.99;;;13.88;54.93
60817;BME280;51921;51.518;-3.188;2023-05-23T02:35:29;102353.89;;;14.31;53.74
60817;BME280;51921;51.518;-3.188;2023-05-23T02:37:55;102355.49;;;15.20;52.33
60817;BME280;51921;51.518;-3.188;2023-05-23T02:40:20;102355.60;;;14.64;53.03
60817;BME280;51921;51.518;-3.188;2023-05-23T02:42:45;102353.79;;;14.79;52.88
60817;BME280;51921;51.518;-3.188;2023-05-23T02:45:11;102346.21;;;14.14;54.20
60817;BME280;51921;51.518;-3.188;2023-05-23T02:47:36;102341.50;;;13.61;54.86
60817;BME280;51921;51.518;-3.188;2023-05-23T02:50:02;102344.23;;;14.30;53.38
60817;BME280;51921;51.518;-3.188;2023-05-23T02:52:27;102343.74;;;14.56;53.04
60817;BME280;51921;51.518;-3.188;2023-05-23T02:54:53;102338.04;;;13.50;55.07
60817;BME280;51921;51.518;-3.188;2023-05-23T02:57:18;102343.54;;;14.44;53.87
60817;BME280;51921;51.518;-3.188;2023-05-23T02:59:43;102346.39;;;14.64;52.69
60817;BME280;51921;51.518;-3.188;2023-05-23T03:02:09;102341.26;;;12.58;56.48
60817;BME280;51921;51.518;-3.188;2023-05-23T03:04:34;102338.10;;;11.39;61.27
60817;BME280;51921;51.518;-3.188;2023-05-23T03:07:00;102334.87;;;9.28;72.69
60817;BME280;51921;51.518;-3.188;2023-05-23T03:09:25;102332.84;;;10.25;71.66
60817;BME280;51921;51.518;-3.188;2023-05-23T03:11:51;102331.59;;;10.28;73.85
60817;BME280;51921;51.518;-3.188;2023-05-23T03:14:16;102332.77;;;12.04;66.29
60817;BME280;51921;51.518;-3.188;2023-05-23T03:16:42;102331.79;;;13.45;59.64
60817;BME280;51921;51.518;-3.188;2023-05-23T03:19:07;102336.78;;;13.11;60.37
60817;BME280;51921;51.518;-3.188;2023-05-23T03:21:33;102334.51;;;13.49;57.80
60817;BME280;51921;51.518;-3.188;2023-05-23T03:23:58;102333.97;;;13.31;57.47
60817;BME280;51921;51.518;-3.188;2023-05-23T03:26:24;102338.42;;;12.95;58.39
60817;BME280;51921;51.518;-3.188;2023-05-23T03:28:49;102335.84;;;12.94;57.93
60817;BME280;51921;51.518;-3.188;2023-05-23T03:31:14;102338.58;;;13.77;56.81
60817;BME280;51921;51.518;-3.188;2023-05-23T03:33:40;102340.17;;;13.85;55.52
60817;BME280;51921;51.518;-3.188;2023-05-23T03:36:06;102339.60;;;12.28;58.21
60817;BME280;51921;51.518;-3.188;2023-05-23T03:38:31;102342.07;;;12.87;57.27
60817;BME280;51921;51.518;-3.188;2023-05-23T03:40:56;102343.77;;;14.47;54.20
60817;BME280;51921;51.518;-3.188;2023-05-23T03:43:22;102343.78;;;13.30;55.90
60817;BME280;51921;51.518;-3.188;2023-05-23T03:45:47;102347.50;;;13.24;55.72
60817;BME280;51921;51.518;-3.188;2023-05-23T03:48:12;102345.01;;;13.45;55.52
60817;BME280;51921;51.518;-3.188;2023-05-23T03:50:38;102347.11;;;13.79;54.68
60817;BME280;51921;51.518;-3.188;2023-05-23T03:53:03;102348.61;;;14.23;53.94
60817;BME280;51921;51.518;-3.188;2023-05-23T03:55:30;102348.52;;;11.70;61.65
60817;BME280;51921;51.518;-3.188;2023-05-23T03:57:54;102345.25;;;13.23;56.81
60817;BME280;51921;51.518;-3.188;2023-05-23T04:00:19;102349.45;;;13.12;56.75
60817;BME280;51921;51.518;-3.188;2023-05-23T04:02:45;102355.13;;;13.52;56.34
60817;BME280;51921;51.518;-3.188;2023-05-23T04:05:10;102352.47;;;13.59;56.60
60817;BME280;51921;51.518;-3.188;2023-05-23T04:07:36;102355.56;;;13.47;55.94
60817;BME280;51921;51.518;-3.188;2023-05-23T04:10:01;102352.50;;;13.10;56.50
60817;BME280;51921;51.518;-3.188;2023-05-23T04:12:26;102351.81;;;13.95;55.38
60817;BME280;51921;51.518;-3.188;2023-05-23T04:14:52;102351.03;;;12.63;58.72
60817;BME280;51921;51.518;-3.188;2023-05-23T04:17:17;102358.85;;;9.81;70.30
60817;BME280;51921;51.518;-3.188;2023-05-23T04:19:43;102360.18;;;7.73;85.25
60817;BME280;51921;51.518;-3.188;2023-05-23T04:22:08;102359.53;;;8.73;88.00
60817;BME280;51921;51.518;-3.188;2023-05-23T04:24:33;102360.39;;;9.18;82.94
60817;BME280;51921;51.518;-3.188;2023-05-23T04:26:59;102362.01;;;11.41;74.82
60817;BME280;51921;51.518;-3.188;2023-05-23T04:29:24;102362.31;;;12.35;67.69
60817;BME280;51921;51.518;-3.188;2023-05-23T04:31:50;102361.30;;;11.65;67.45
60817;BME280;51921;51.518;-3.188;2023-05-23T04:34:15;102359.64;;;12.13;64.83
60817;BME280;51921;51.518;-3.188;2023-05-23T04:36:41;102360.16;;;12.76;62.69
60817;BME280;51921;51.518;-3.188;2023-05-23T04:39:06;102361.01;;;11.45;65.39
60817;BME280;51921;51.518;-3.188;2023-05-23T04:41:32;102361.65;;;12.66;61.86
60817;BME280;51921;51.518;-3.188;2023-05-23T04:43:57;102366.26;;;12.32;63.58
60817;BME280;51921;51.518;-3.188;2023-05-23T04:46:23;102369.29;;;11.57;68.09
60817;BME280;51921;51.518;-3.188;2023-05-23T04:48:48;102370.82;;;14.34;58.87
60817;BME280;51921;51.518;-3.188;2023-05-23T04:51:14;102378.01;;;15.67;53.91
60817;BME280;51921;51.518;-3.188;2023-05-23T04:53:39;102380.50;;;15.94;53.31
60817;BME280;51921;51.518;-3.188;2023-05-23T04:56:05;102379.98;;;13.65;58.20
60817;BME280;51921;51.518;-3.188;2023-05-23T04:58:30;102379.12;;;11.45;64.83
60817;BME280;51921;51.518;-3.188;2023-05-23T05:00:56;102379.44;;;11.82;69.26
60817;BME280;51921;51.518;-3.188;2023-05-23T05:03:21;102381.25;;;8.36;85.26
60817;BME280;51921;51.518;-3.188;2023-05-23T05:05:47;102384.42;;;10.48;77.63
60817;BME280;51921;51.518;-3.188;2023-05-23T05:08:12;102385.76;;;11.83;71.77
60817;BME280;51921;51.518;-3.188;2023-05-23T05:10:39;102391.79;;;13.21;65.02
60817;BME280;51921;51.518;-3.188;2023-05-23T05:13:03;102386.45;;;13.41;62.09
60817;BME280;51921;51.518;-3.188;2023-05-23T05:15:28;102386.91;;;12.91;63.36
60817;BME280;51921;51.518;-3.188;2023-05-23T05:17:53;102388.21;;;12.53;62.38
60817;BME280;51921;51.518;-3.188;2023-05-23T05:20:19;102388.24;;;12.96;61.91
60817;BME280;51921;51.518;-3.188;2023-05-23T05:22:45;102398.91;;;9.73;73.24
60817;BME280;51921;51.518;-3.188;2023-05-23T05:25:10;102401.09;;;10.30;77.04
60817;BME280;51921;51.518;-3.188;2023-05-23T05:27:36;102400.42;;;9.39;80.93
60817;BME280;51921;51.518;-3.188;2023-05-23T05:30:01;102401.84;;;9.69;82.74
60817;BME280;51921;51.518;-3.188;2023-05-23T05:32:26;102402.20;;;9.28;84.78
60817;BME280;51921;51.518;-3.188;2023-05-23T05:34:52;102406.31;;;10.09;80.68
60817;BME280;51921;51.518;-3.188;2023-05-23T05:37:18;102405.95;;;9.73;83.61
60817;BME280;51921;51.518;-3.188;2023-05-23T05:39:43;102407.69;;;9.92;83.19
60817;BME280;51921;51.518;-3.188;2023-05-23T05:42:08;102402.85;;;9.35;85.50
60817;BME280;51921;51.518;-3.188;2023-05-23T05:44:34;102404.60;;;8.91;90.67
60817;BME280;51921;51.518;-3.188;2023-05-23T05:46:59;102402.83;;;8.60;91.09
60817;BME280;51921;51.518;-3.188;2023-05-23T05:49:24;102401.78;;;8.91;92.75
60817;BME280;51921;51.518;-3.188;2023-05-23T05:51:51;102401.46;;;9.49;86.81
60817;BME280;51921;51.518;-3.188;2023-05-23T05:54:15;102405.60;;;9.71;84.15
60817;BME280;51921;51.518;-3.188;2023-05-23T05:56:41;102405.47;;;10.78;78.67
60817;BME280;51921;51.518;-3.188;2023-05-23T05:59:06;102404.30;;;9.45;81.44
60817;BME280;51921;51.518;-3.188;2023-05-23T06:01:32;102404.04;;;8.77;92.66
60817;BME280;51921;51.518;-3.188;2023-05-23T06:03:57;102407.60;;;11.12;79.54
60817;BME280;51921;51.518;-3.188;2023-05-23T06:06:23;102408.02;;;10.25;77.10
60817;BME280;51921;51.518;-3.188;2023-05-23T06:08:48;102407.12;;;11.46;78.30
60817;BME280;51921;51.518;-3.188;2023-05-23T06:11:14;102404.86;;;9.87;82.25
60817;BME280;51921;51.518;-3.188;2023-05-23T06:13:39;102406.87;;;12.02;75.71
60817;BME280;51921;51.518;-3.188;2023-05-23T06:16:05;102405.96;;;11.23;76.87
60817;BME280;51921;51.518;-3.188;2023-05-23T06:18:30;102402.95;;;9.69;80.89
60817;BME280;51921;51.518;-3.188;2023-05-23T06:20:56;102404.26;;;8.52;88.93
60817;BME280;51921;51.518;-3.188;2023-05-23T06:23:21;102406.92;;;8.57;94.01
60817;BME280;51921;51.518;-3.188;2023-05-23T06:25:47;102406.20;;;8.51;96.30
60817;BME280;51921;51.518;-3.188;2023-05-23T06:28:12;102403.62;;;9.86;87.43
60817;BME280;51921;51.518;-3.188;2023-05-23T06:30:38;102403.50;;;9.43;88.62
60817;BME280;51921;51.518;-3.188;2023-05-23T06:33:03;102410.07;;;9.08;93.72
60817;BME280;51921;51.518;-3.188;2023-05-23T06:35:28;102409.24;;;8.45;96.54
60817;BME280;51921;51.518;-3.188;2023-05-23T06:37:54;102410.51;;;7.90;100.00
60817;BME280;51921;51.518;-3.188;2023-05-23T06:40:20;102412.41;;;8.13;100.00
60817;BME280;51921;51.518;-3.188;2023-05-23T06:42:45;102413.52;;;8.29;100.00
60817;BME280;51921;51.518;-3.188;2023-05-23T06:45:11;102409.77;;;8.50;100.00
60817;BME280;51921;51.518;-3.188;2023-05-23T06:47:36;102416.15;;;9.10;99.82
60817;BME280;51921;51.518;-3.188;2023-05-23T06:50:02;102416.05;;;9.91;96.60
60817;BME280;51921;51.518;-3.188;2023-05-23T06:52:27;102416.80;;;9.11;95.85
60817;BME280;51921;51.518;-3.188;2023-05-23T06:54:52;102416.02;;;8.45;100.00
60817;BME280;51921;51.518;-3.188;2023-05-23T06:57:18;102414.79;;;8.40;100.00
60817;BME280;51921;51.518;-3.188;2023-05-23T06:59:43;102417.29;;;8.20;100.00
60817;BME280;51921;51.518;-3.188;2023-05-23T07:02:08;102417.91;;;8.19;100.00
60817;BME280;51921;51.518;-3.188;2023-05-23T07:04:34;102416.23;;;8.55;100.00
60817;BME280;51921;51.518;-3.188;2023-05-23T07:06:59;102418.54;;;8.74;100.00
60817;BME280;51921;51.518;-3.188;2023-05-23T07:09:25;102421.25;;;8.40;100.00
60817;BME280;51921;51.518;-3.188;2023-05-23T07:11:50;102426.85;;;7.74;100.00
60817;BME280;51921;51.518;-3.188;2023-05-23T07:14:16;102427.11;;;7.89;100.00
60817;BME280;51921;51.518;-3.188;2023-05-23T07:16:41;102428.27;;;7.63;100.00
60817;BME280;51921;51.518;-3.188;2023-05-23T07:19:07;102430.25;;;7.91;100.00
60817;BME280;51921;51.518;-3.188;2023-05-23T07:21:32;102424.96;;;8.51;100.00
60817;BME280;51921;51.518;-3.188;2023-05-23T07:23:58;102424.86;;;8.88;100.00
60817;BME280;51921;51.518;-3.188;2023-05-23T07:26:23;102425.51;;;9.16;100.00
60817;BME280;51921;51.518;-3.188;2023-05-23T07:28:48;102424.98;;;9.12;100.00
60817;BME280;51921;51.518;-3.188;2023-05-23T07:31:14;102422.35;;;8.25;100.00
60817;BME280;51921;51.518;-3.188;2023-05-23T07:33:39;102431.18;;;7.97;100.00
60817;BME280;51921;51.518;-3.188;2023-05-23T07:36:06;102427.85;;;8.86;100.00
60817;BME280;51921;51.518;-3.188;2023-05-23T07:38:30;102433.01;;;9.38;100.00
60817;BME280;51921;51.518;-3.188;2023-05-23T07:40:56;102433.35;;;8.68;100.00
60817;BME280;51921;51.518;-3.188;2023-05-23T07:43:21;102433.94;;;8.73;100.00
60817;BME280;51921;51.518;-3.188;2023-05-23T07:45:47;102434.55;;;9.05;100.00
60817;BME280;51921;51.518;-3.188;2023-05-23T07:48:12;102436.63;;;10.07;96.20
60817;BME280;51921;51.518;-3.188;2023-05-23T07:50:39;102435.95;;;8.53;100.00
60817;BME280;51921;51.518;-3.188;2023-05-23T07:53:03;102435.28;;;9.66;100.00
60817;BME280;51921;51.518;-3.188;2023-05-23T07:55:28;102435.85;;;8.91;100.00
60817;BME280;51921;51.518;-3.188;2023-05-23T07:57:54;102439.78;;;9.59;97.58
60817;BME280;51921;51.518;-3.188;2023-05-23T08:00:19;102441.39;;;8.64;100.00
60817;BME280;51921;51.518;-3.188;2023-05-23T08:02:45;102441.49;;;9.40;100.00
60817;BME280;51921;51.518;-3.188;2023-05-23T08:05:10;102437.81;;;9.33;100.00
60817;BME280;51921;51.518;-3.188;2023-05-23T08:07:36;102439.08;;;9.09;100.00
60817;BME280;51921;51.518;-3.188;2023-05-23T08:10:01;102437.59;;;8.91;100.00
60817;BME280;51921;51.518;-3.188;2023-05-23T08:12:27;102436.13;;;9.35;100.00
60817;BME280;51921;51.518;-3.188;2023-05-23T08:14:52;102435.58;;;9.35;100.00
60817;BME280;51921;51.518;-3.188;2023-05-23T08:17:17;102434.17;;;9.35;100.00
60817;BME280;51921;51.518;-3.188;2023-05-23T08:19:43;102431.65;;;9.41;100.00
60817;BME280;51921;51.518;-3.188;2023-05-23T08:22:08;102428.38;;;9.67;99.88
60817;BME280;51921;51.518;-3.188;2023-05-23T08:24:34;102428.09;;;9.38;95.63
60817;BME280;51921;51.518;-3.188;2023-05-23T08:26:59;102427.31;;;9.12;98.37
60817;BME280;51921;51.518;-3.188;2023-05-23T08:29:25;102418.77;;;10.39;91.74
60817;BME280;51921;51.518;-3.188;2023-05-23T08:31:50;102421.83;;;9.47;95.11
60817;BME280;51921;51.518;-3.188;2023-05-23T08:34:16;102417.37;;;9.79;92.66
60817;BME280;51921;51.518;-3.188;2023-05-23T08:36:41;102416.20;;;8.97;97.30
60817;BME280;51921;51.518;-3.188;2023-05-23T08:39:07;102412.98;;;10.20;91.14
60817;BME280;51921;51.518;-3.188;2023-05-23T08:41:33;102415.40;;;10.12;89.30
60817;BME280;51921;51.518;-3.188;2023-05-23T08:43:58;102411.44;;;9.56;91.90
60817;BME280;51921;51.518;-3.188;2023-05-23T08:46:23;102404.37;;;10.01;87.92
60817;BME280;51921;51.518;-3.188;2023-05-23T08:48:51;102401.79;;;9.64;88.16
60817;BME280;51921;51.518;-3.188;2023-05-23T08:51:14;102404.16;;;9.67;88.19
60817;BME280;51921;51.518;-3.188;2023-05-23T08:53:41;102406.43;;;10.66;83.51
60817;BME280;51921;51.518;-3.188;2023-05-23T08:56:05;102416.12;;;11.38;76.75
60817;BME280;51921;51.518;-3.188;2023-05-23T08:58:31;102420.96;;;10.39;81.44
60817;BME280;51921;51.518;-3.188;2023-05-23T09:00:56;102421.70;;;10.48;79.31
60817;BME280;51921;51.518;-3.188;2023-05-23T09:03:21;102425.70;;;9.76;85.23
60817;BME280;51921;51.518;-3.188;2023-05-23T09:05:47;102425.10;;;10.16;83.45
60817;BME280;51921;51.518;-3.188;2023-05-23T09:08:12;102422.40;;;10.55;81.36
60817;BME280;51921;51.518;-3.188;2023-05-23T09:10:37;102416.27;;;13.62;69.88
60817;BME280;51921;51.518;-3.188;2023-05-23T09:13:03;102411.04;;;13.70;64.19
60817;BME280;51921;51.518;-3.188;2023-05-23T09:15:28;102412.34;;;15.08;60.10
60817;BME280;51921;51.518;-3.188;2023-05-23T09:17:58;102406.25;;;14.44;57.22
60817;BME280;51921;51.518;-3.188;2023-05-23T09:20:18;102412.78;;;11.53;69.27
60817;BME280;51921;51.518;-3.188;2023-05-23T09:22:46;102411.29;;;11.14;73.96
60817;BME280;51921;51.518;-3.188;2023-05-23T09:25:09;102411.98;;;13.75;64.22
60817;BME280;51921;51.518;-3.188;2023-05-23T09:27:35;102415.64;;;11.42;70.01
60817;BME280;51921;51.518;-3.188;2023-05-23T09:30:05;102409.92;;;12.67;65.94
60817;BME280;51921;51.518;-3.188;2023-05-23T09:32:26;102408.07;;;12.07;66.05
60817;BME280;51921;51.518;-3.188;2023-05-23T09:34:55;102408.22;;;11.19;71.27
60817;BME280;51921;51.518;-3.188;2023-05-23T09:37:16;102403.50;;;11.43;71.99
60817;BME280;51921;51.518;-3.188;2023-05-23T09:39:45;102400.92;;;13.97;60.20
60817;BME280;51921;51.518;-3.188;2023-05-23T09:42:07;102401.77;;;11.26;70.16
60817;BME280;51921;51.518;-3.188;2023-05-23T09:44:40;102403.17;;;11.94;67.58
60817;BME280;51921;51.518;-3.188;2023-05-23T09:47:05;102404.04;;;11.57;68.61
60817;BME280;51921;51.518;-3.188;2023-05-23T09:49:26;102398.79;;;13.38;69.40
60817;BME280;51921;51.518;-3.188;2023-05-23T09:51:58;102405.69;;;11.91;65.81
60817;BME280;51921;51.518;-3.188;2023-05-23T09:54:14;102405.25;;;11.41;71.22
60817;BME280;51921;51.518;-3.188;2023-05-23T09:56:41;102396.65;;;14.29;63.84
60817;BME280;51921;51.518;-3.188;2023-05-23T09:59:05;102398.82;;;14.80;61.49
60817;BME280;51921;51.518;-3.188;2023-05-23T10:01:31;102405.78;;;11.92;69.89
60817;BME280;51921;51.518;-3.188;2023-05-23T10:03:56;102403.22;;;11.38;69.64
60817;BME280;51921;51.518;-3.188;2023-05-23T10:06:24;102399.01;;;13.88;63.39
60817;BME280;51921;51.518;-3.188;2023-05-23T10:08:51;102410.88;;;13.63;60.02
60817;BME280;51921;51.518;-3.188;2023-05-23T10:13:39;102414.30;;;12.15;66.44
60817;BME280;51921;51.518;-3.188;2023-05-23T10:16:08;102413.78;;;12.37;70.77
60817;BME280;51921;51.518;-3.188;2023-05-23T10:18:29;102424.16;;;11.25;71.37
60817;BME280;51921;51.518;-3.188;2023-05-23T10:20:56;102421.33;;;13.24;64.63
60817;BME280;51921;51.518;-3.188;2023-05-23T10:23:19;102419.70;;;12.00;63.13
60817;BME280;51921;51.518;-3.188;2023-05-23T10:25:45;102419.29;;;11.77;69.66
60817;BME280;51921;51.518;-3.188;2023-05-23T10:28:11;102416.23;;;11.07;73.91
60817;BME280;51921;51.518;-3.188;2023-05-23T10:30:36;102413.16;;;12.98;66.27
60817;BME280;51921;51.518;-3.188;2023-05-23T10:33:02;102410.95;;;12.26;66.83
60817;BME280;51921;51.518;-3.188;2023-05-23T10:35:37;102410.25;;;12.04;67.92
60817;BME280;51921;51.518;-3.188;2023-05-23T10:37:58;102409.87;;;12.21;66.30
60817;BME280;51921;51.518;-3.188;2023-05-23T10:40:23;102402.89;;;14.20;60.46
60817;BME280;51921;51.518;-3.188;2023-05-23T10:42:49;102399.74;;;14.78;53.94
60817;BME280;51921;51.518;-3.188;2023-05-23T10:45:14;102396.55;;;14.08;59.51
60817;BME280;51921;51.518;-3.188;2023-05-23T10:47:33;102404.69;;;11.78;66.84
60817;BME280;51921;51.518;-3.188;2023-05-23T10:50:00;102404.87;;;13.85;60.30
60817;BME280;51921;51.518;-3.188;2023-05-23T10:52:24;102408.22;;;12.21;64.63
60817;BME280;51921;51.518;-3.188;2023-05-23T10:54:52;102406.26;;;12.55;68.57
60817;BME280;51921;51.518;-3.188;2023-05-23T10:57:16;102407.94;;;12.30;67.08
60817;BME280;51921;51.518;-3.188;2023-05-23T10:59:40;102404.47;;;13.04;67.31
60817;BME280;51921;51.518;-3.188;2023-05-23T11:02:12;102404.91;;;13.49;62.78
60817;BME280;51921;51.518;-3.188;2023-05-23T11:04:31;102400.63;;;11.99;70.13
60817;BME280;51921;51.518;-3.188;2023-05-23T11:06:57;102396.72;;;12.57;69.36
60817;BME280;51921;51.518;-3.188;2023-05-23T11:09:22;102397.82;;;15.27;58.30
60817;BME280;51921;51.518;-3.188;2023-05-23T11:12:00;102405.35;;;15.36;55.03
60817;BME280;51921;51.518;-3.188;2023-05-23T11:14:13;102406.11;;;13.73;57.83
60817;BME280;51921;51.518;-3.188;2023-05-23T11:16:40;102402.64;;;13.28;61.20
60817;BME280;51921;51.518;-3.188;2023-05-23T11:21:29;102402.34;;;13.70;59.55
60817;BME280;51921;51.518;-3.188;2023-05-23T11:23:54;102403.40;;;13.98;61.23
60817;BME280;51921;51.518;-3.188;2023-05-23T11:26:29;102412.29;;;13.15;65.98
60817;BME280;51921;51.518;-3.188;2023-05-23T11:28:55;102414.94;;;12.11;70.31
60817;BME280;51921;51.518;-3.188;2023-05-23T11:31:10;102412.14;;;12.60;69.88
60817;BME280;51921;51.518;-3.188;2023-05-23T11:33:36;102408.69;;;14.15;64.68
60817;BME280;51921;51.518;-3.188;2023-05-23T11:36:01;102404.56;;;15.06;59.72
60817;BME280;51921;51.518;-3.188;2023-05-23T11:38:27;102401.60;;;15.49;56.18
60817;BME280;51921;51.518;-3.188;2023-05-23T11:40:52;102403.35;;;13.09;58.41
60817;BME280;51921;51.518;-3.188;2023-05-23T11:43:17;102404.27;;;12.49;65.43
60817;BME280;51921;51.518;-3.188;2023-05-23T11:45:43;102411.34;;;15.14;57.35
60817;BME280;51921;51.518;-3.188;2023-05-23T11:48:09;102408.06;;;16.49;53.23
60817;BME280;51921;51.518;-3.188;2023-05-23T11:50:34;102409.15;;;18.19;47.80
60817;BME280;51921;51.518;-3.188;2023-05-23T11:52:59;102410.51;;;17.92;48.66
60817;BME280;51921;51.518;-3.188;2023-05-23T11:55:24;102413.45;;;16.56;52.50
60817;BME280;51921;51.518;-3.188;2023-05-23T11:57:50;102418.63;;;15.41;51.48
60817;BME280;51921;51.518;-3.188;2023-05-23T12:00:15;102419.74;;;13.17;62.19
60817;BME280;51921;51.518;-3.188;2023-05-23T12:02:40;102415.14;;;15.41;55.50
60817;BME280;51921;51.518;-3.188;2023-05-23T12:05:08;102409.90;;;15.88;55.57
60817;BME280;51921;51.518;-3.188;2023-05-23T12:07:32;102412.77;;;14.98;55.09
60817;BME280;51921;51.518;-3.188;2023-05-23T12:09:56;102408.39;;;17.62;50.13
60817;BME280;51921;51.518;-3.188;2023-05-23T12:12:21;102410.95;;;18.87;46.72
60817;BME280;51921;51.518;-3.188;2023-05-23T12:14:47;102415.31;;;14.22;53.39
60817;BME280;51921;51.518;-3.188;2023-05-23T12:17:12;102417.90;;;16.11;53.33
60817;BME280;51921;51.518;-3.188;2023-05-23T12:19:37;102410.65;;;19.15;47.23
60817;BME280;51921;51.518;-3.188;2023-05-23T12:22:05;102408.83;;;19.17;45.44
60817;BME280;51921;51.518;-3.188;2023-05-23T12:24:28;102407.04;;;18.36;45.39
60817;BME280;51921;51.518;-3.188;2023-05-23T12:27:00;102408.66;;;18.76;44.33
60817;BME280;51921;51.518;-3.188;2023-05-23T12:29:20;102408.00;;;17.03;48.02
60817;BME280;51921;51.518;-3.188;2023-05-23T12:31:47;102406.13;;;18.82;46.09
60817;BME280;51921;51.518;-3.188;2023-05-23T12:34:11;102402.67;;;18.08;45.03
60817;BME280;51921;51.518;-3.188;2023-05-23T12:36:35;102407.49;;;20.17;42.81